sensor_id;sensor_type;location;lat;lon;timestamp;temperature;humidity
66962;HTU21D;53897;51.126;5.868;2023-05-15T00:00:12;25.01;52.71
66962;HTU21D;53897;51.126;5.868;2023-05-15T00:02:39;25.00;52.70
66962;HTU21D;53897;51.126;5.868;2023-05-15T00:05:07;24.99;52.68
66962;HTU21D;53897;51.126;5.868;2023-05-15T00:07:34;24.99;52.65
66962;HTU21D;53897;51.126;5.868;2023-05-15T00:10:01;24.98;52.64
66962;HTU21D;53897;51.126;5.868;2023-05-15T00:12:27;24.97;52.62
66962;HTU21D;53897;51.126;5.868;2023-05-15T00:14:53;24.97;52.60
66962;HTU21D;53897;51.126;5.868;2023-05-15T00:17:19;24.97;52.58
66962;HTU21D;53897;51.126;5.868;2023-05-15T00:19:45;24.94;52.55
66962;HTU21D;53897;51.126;5.868;2023-05-15T00:22:11;24.93;52.53
66962;HTU21D;53897;51.126;5.868;2023-05-15T00:24:36;24.92;52.50
66962;HTU21D;53897;51.126;5.868;2023-05-15T00:27:03;24.92;52.48
66962;HTU21D;53897;51.126;5.868;2023-05-15T00:29:29;24.91;52.46
66962;HTU21D;53897;51.126;5.868;2023-05-15T00:31:55;24.91;52.43
66962;HTU21D;53897;51.126;5.868;2023-05-15T00:34:24;24.89;52.43
66962;HTU21D;53897;51.126;5.868;2023-05-15T00:36:50;24.88;52.43
66962;HTU21D;53897;51.126;5.868;2023-05-15T00:39:15;24.88;52.40
66962;HTU21D;53897;51.126;5.868;2023-05-15T00:41:42;24.87;52.36
66962;HTU21D;53897;51.126;5.868;2023-05-15T00:44:10;24.87;52.33
66962;HTU21D;53897;51.126;5.868;2023-05-15T00:46:38;24.86;52.31
66962;HTU21D;53897;51.126;5.868;2023-05-15T00:49:04;24.85;52.28
66962;HTU21D;53897;51.126;5.868;2023-05-15T00:51:31;24.84;52.28
66962;HTU21D;53897;51.126;5.868;2023-05-15T00:53:58;24.84;52.28
66962;HTU21D;53897;51.126;5.868;2023-05-15T00:56:26;24.83;52.28
66962;HTU21D;53897;51.126;5.868;2023-05-15T00:58:56;24.80;52.25
66962;HTU21D;53897;51.126;5.868;2023-05-15T01:01:24;24.80;52.23
66962;HTU21D;53897;51.126;5.868;2023-05-15T01:03:50;24.80;52.21
66962;HTU21D;53897;51.126;5.868;2023-05-15T01:06:16;24.79;52.20
66962;HTU21D;53897;51.126;5.868;2023-05-15T01:08:46;24.78;52.18
66962;HTU21D;53897;51.126;5.868;2023-05-15T01:11:14;24.78;52.18
66962;HTU21D;53897;51.126;5.868;2023-05-15T01:13:40;24.77;52.18
66962;HTU21D;53897;51.126;5.868;2023-05-15T01:16:08;24.77;52.19
66962;HTU21D;53897;51.126;5.868;2023-05-15T01:18:35;24.76;52.15
66962;HTU21D;53897;51.126;5.868;2023-05-15T01:28:47;24.73;52.00
66962;HTU21D;53897;51.126;5.868;2023-05-15T01:31:21;24.71;52.02
66962;HTU21D;53897;51.126;5.868;2023-05-15T01:33:54;24.71;52.03
66962;HTU21D;53897;51.126;5.868;2023-05-15T01:36:28;24.69;52.01
66962;HTU21D;53897;51.126;5.868;2023-05-15T01:39:02;24.69;52.04
66962;HTU21D;53897;51.126;5.868;2023-05-15T01:44:14;24.68;52.08
66962;HTU21D;53897;51.126;5.868;2023-05-15T01:46:45;24.66;52.04
66962;HTU21D;53897;51.126;5.868;2023-05-15T01:49:18;24.65;52.04
66962;HTU21D;53897;51.126;5.868;2023-05-15T01:51:49;24.64;52.01
66962;HTU21D;53897;51.126;5.868;2023-05-15T01:54:17;24.64;51.97
66962;HTU21D;53897;51.126;5.868;2023-05-15T01:56:43;24.64;51.93
66962;HTU21D;53897;51.126;5.868;2023-05-15T01:59:12;24.62;51.88
66962;HTU21D;53897;51.126;5.868;2023-05-15T02:01:39;24.63;51.85
66962;HTU21D;53897;51.126;5.868;2023-05-15T02:04:07;24.61;51.83
66962;HTU21D;53897;51.126;5.868;2023-05-15T02:06:35;24.61;51.80
66962;HTU21D;53897;51.126;5.868;2023-05-15T02:09:02;24.60;51.79
66962;HTU21D;53897;51.126;5.868;2023-05-15T02:11:29;24.59;51.77
66962;HTU21D;53897;51.126;5.868;2023-05-15T02:13:56;24.57;51.75
66962;HTU21D;53897;51.126;5.868;2023-05-15T02:16:22;24.57;51.72
66962;HTU21D;53897;51.126;5.868;2023-05-15T02:18:48;24.57;51.70
66962;HTU21D;53897;51.126;5.868;2023-05-15T02:21:14;24.58;51.69
66962;HTU21D;53897;51.126;5.868;2023-05-15T02:23:41;24.57;51.66
66962;HTU21D;53897;51.126;5.868;2023-05-15T02:28:54;24.55;51.66
66962;HTU21D;53897;51.126;5.868;2023-05-15T02:32:05;24.54;51.69
66962;HTU21D;53897;51.126;5.868;2023-05-15T02:34:54;24.53;51.73
66962;HTU21D;53897;51.126;5.868;2023-05-15T02:37:27;24.51;51.76
66962;HTU21D;53897;51.126;5.868;2023-05-15T02:39:56;24.53;51.77
66962;HTU21D;53897;51.126;5.868;2023-05-15T02:42:27;24.51;51.75
66962;HTU21D;53897;51.126;5.868;2023-05-15T02:44:54;24.49;51.72
66962;HTU21D;53897;51.126;5.868;2023-05-15T02:47:22;24.49;51.70
66962;HTU21D;53897;51.126;5.868;2023-05-15T02:49:51;24.48;51.71
66962;HTU21D;53897;51.126;5.868;2023-05-15T02:52:17;24.48;51.73
66962;HTU21D;53897;51.126;5.868;2023-05-15T02:54:43;24.47;51.72
66962;HTU21D;53897;51.126;5.868;2023-05-15T02:57:09;24.46;51.71
66962;HTU21D;53897;51.126;5.868;2023-05-15T02:59:36;24.45;51.76
66962;HTU21D;53897;51.126;5.868;2023-05-15T03:02:02;24.45;51.72
66962;HTU21D;53897;51.126;5.868;2023-05-15T03:04:28;24.44;51.70
66962;HTU21D;53897;51.126;5.868;2023-05-15T03:06:54;24.44;51.75
66962;HTU21D;53897;51.126;5.868;2023-05-15T03:09:19;24.43;51.75
66962;HTU21D;53897;51.126;5.868;2023-05-15T03:11:45;24.43;51.77
66962;HTU21D;53897;51.126;5.868;2023-05-15T03:14:11;24.42;51.72
66962;HTU21D;53897;51.126;5.868;2023-05-15T03:16:37;24.41;51.70
66962;HTU21D;53897;51.126;5.868;2023-05-15T03:19:03;24.41;51.69
66962;HTU21D;53897;51.126;5.868;2023-05-15T03:21:29;24.40;51.72
66962;HTU21D;53897;51.126;5.868;2023-05-15T03:23:56;24.39;51.75
66962;HTU21D;53897;51.126;5.868;2023-05-15T03:26:22;24.41;51.75
66962;HTU21D;53897;51.126;5.868;2023-05-15T03:28:47;24.38;51.77
66962;HTU21D;53897;51.126;5.868;2023-05-15T03:31:13;24.38;51.75
66962;HTU21D;53897;51.126;5.868;2023-05-15T03:33:40;24.36;51.76
66962;HTU21D;53897;51.126;5.868;2023-05-15T03:36:05;24.36;51.72
66962;HTU21D;53897;51.126;5.868;2023-05-15T03:38:31;24.36;51.72
66962;HTU21D;53897;51.126;5.868;2023-05-15T03:40:57;24.34;51.69
66962;HTU21D;53897;51.126;5.868;2023-05-15T03:43:23;24.33;51.70
66962;HTU21D;53897;51.126;5.868;2023-05-15T03:45:49;24.32;51.66
66962;HTU21D;53897;51.126;5.868;2023-05-15T03:48:15;24.32;51.62
66962;HTU21D;53897;51.126;5.868;2023-05-15T03:50:43;24.31;51.56
66962;HTU21D;53897;51.126;5.868;2023-05-15T03:53:09;24.30;51.57
66962;HTU21D;53897;51.126;5.868;2023-05-15T03:55:35;24.30;51.55
66962;HTU21D;53897;51.126;5.868;2023-05-15T03:58:01;24.29;51.53
66962;HTU21D;53897;51.126;5.868;2023-05-15T04:00:27;24.29;51.45
66962;HTU21D;53897;51.126;5.868;2023-05-15T04:02:53;24.26;51.29
66962;HTU21D;53897;51.126;5.868;2023-05-15T04:05:18;24.24;51.33
66962;HTU21D;53897;51.126;5.868;2023-05-15T04:07:46;24.20;51.44
66962;HTU21D;53897;51.126;5.868;2023-05-15T04:10:12;24.18;51.55
66962;HTU21D;53897;51.126;5.868;2023-05-15T04:12:38;24.14;51.64
66962;HTU21D;53897;51.126;5.868;2023-05-15T04:15:23;24.12;51.72
66962;HTU21D;53897;51.126;5.868;2023-05-15T04:17:51;24.11;51.77
66962;HTU21D;53897;51.126;5.868;2023-05-15T04:20:20;24.10;51.78
66962;HTU21D;53897;51.126;5.868;2023-05-15T04:22:46;24.10;51.81
66962;HTU21D;53897;51.126;5.868;2023-05-15T04:25:13;24.11;51.82
66962;HTU21D;53897;51.126;5.868;2023-05-15T04:27:40;24.09;51.82
66962;HTU21D;53897;51.126;5.868;2023-05-15T04:30:07;24.10;51.81
66962;HTU21D;53897;51.126;5.868;2023-05-15T04:32:34;24.10;51.80
66962;HTU21D;53897;51.126;5.868;2023-05-15T04:35:05;24.11;51.80
66962;HTU21D;53897;51.126;5.868;2023-05-15T04:37:35;24.06;51.80
66962;HTU21D;53897;51.126;5.868;2023-05-15T04:40:01;24.05;51.91
66962;HTU21D;53897;51.126;5.868;2023-05-15T04:42:27;24.01;51.98
66962;HTU21D;53897;51.126;5.868;2023-05-15T04:44:53;23.99;52.06
66962;HTU21D;53897;51.126;5.868;2023-05-15T04:47:19;24.01;52.07
66962;HTU21D;53897;51.126;5.868;2023-05-15T04:49:45;24.01;52.07
66962;HTU21D;53897;51.126;5.868;2023-05-15T04:52:12;24.01;52.04
66962;HTU21D;53897;51.126;5.868;2023-05-15T04:54:38;24.00;52.02
66962;HTU21D;53897;51.126;5.868;2023-05-15T04:57:04;24.00;52.04
66962;HTU21D;53897;51.126;5.868;2023-05-15T04:59:31;24.00;52.05
66962;HTU21D;53897;51.126;5.868;2023-05-15T05:01:56;24.00;52.04
66962;HTU21D;53897;51.126;5.868;2023-05-15T05:04:22;23.97;52.11
66962;HTU21D;53897;51.126;5.868;2023-05-15T05:06:48;23.97;52.13
66962;HTU21D;53897;51.126;5.868;2023-05-15T05:09:14;23.95;52.16
66962;HTU21D;53897;51.126;5.868;2023-05-15T05:11:40;23.94;52.25
66962;HTU21D;53897;51.126;5.868;2023-05-15T05:14:18;23.90;52.27
66962;HTU21D;53897;51.126;5.868;2023-05-15T05:16:44;23.92;52.24
66962;HTU21D;53897;51.126;5.868;2023-05-15T05:19:10;23.92;52.18
66962;HTU21D;53897;51.126;5.868;2023-05-15T05:21:36;23.95;52.15
66962;HTU21D;53897;51.126;5.868;2023-05-15T05:24:01;23.98;52.15
66962;HTU21D;53897;51.126;5.868;2023-05-15T05:26:27;24.01;51.99
66962;HTU21D;53897;51.126;5.868;2023-05-15T05:28:53;24.00;51.93
66962;HTU21D;53897;51.126;5.868;2023-05-15T05:31:19;24.00;51.98
66962;HTU21D;53897;51.126;5.868;2023-05-15T05:33:45;23.99;52.01
66962;HTU21D;53897;51.126;5.868;2023-05-15T05:36:11;23.98;52.07
66962;HTU21D;53897;51.126;5.868;2023-05-15T05:38:37;23.97;51.83
66962;HTU21D;53897;51.126;5.868;2023-05-15T05:41:02;23.99;51.82
66962;HTU21D;53897;51.126;5.868;2023-05-15T05:43:30;24.00;51.72
66962;HTU21D;53897;51.126;5.868;2023-05-15T05:45:56;23.99;51.65
66962;HTU21D;53897;51.126;5.868;2023-05-15T05:48:22;24.00;51.34
66962;HTU21D;53897;51.126;5.868;2023-05-15T05:50:48;24.01;50.95
66962;HTU21D;53897;51.126;5.868;2023-05-15T05:53:13;23.99;51.27
66962;HTU21D;53897;51.126;5.868;2023-05-15T05:55:39;23.98;51.27
66962;HTU21D;53897;51.126;5.868;2023-05-15T05:58:05;23.97;51.21
66962;HTU21D;53897;51.126;5.868;2023-05-15T06:00:31;23.96;51.21
66962;HTU21D;53897;51.126;5.868;2023-05-15T06:02:58;23.97;50.89
66962;HTU21D;53897;51.126;5.868;2023-05-15T06:05:25;23.98;50.55
66962;HTU21D;53897;51.126;5.868;2023-05-15T06:07:51;23.99;50.03
66962;HTU21D;53897;51.126;5.868;2023-05-15T06:10:17;24.00;49.80
66962;HTU21D;53897;51.126;5.868;2023-05-15T06:12:44;24.01;49.81
66962;HTU21D;53897;51.126;5.868;2023-05-15T06:15:10;24.00;49.60
66962;HTU21D;53897;51.126;5.868;2023-05-15T06:17:36;24.01;49.49
66962;HTU21D;53897;51.126;5.868;2023-05-15T06:20:03;24.01;49.56
66962;HTU21D;53897;51.126;5.868;2023-05-15T06:22:33;24.01;49.76
66962;HTU21D;53897;51.126;5.868;2023-05-15T06:25:01;24.00;49.63
66962;HTU21D;53897;51.126;5.868;2023-05-15T06:27:27;24.02;49.50
66962;HTU21D;53897;51.126;5.868;2023-05-15T06:29:53;24.03;49.69
66962;HTU21D;53897;51.126;5.868;2023-05-15T06:32:20;24.01;49.89
66962;HTU21D;53897;51.126;5.868;2023-05-15T06:34:45;24.01;50.07
66962;HTU21D;53897;51.126;5.868;2023-05-15T06:37:11;24.02;50.16
66962;HTU21D;53897;51.126;5.868;2023-05-15T06:39:37;24.01;50.24
66962;HTU21D;53897;51.126;5.868;2023-05-15T06:42:03;24.03;50.32
66962;HTU21D;53897;51.126;5.868;2023-05-15T06:44:29;24.02;50.37
66962;HTU21D;53897;51.126;5.868;2023-05-15T06:46:56;24.03;50.39
66962;HTU21D;53897;51.126;5.868;2023-05-15T06:49:23;24.04;50.46
66962;HTU21D;53897;51.126;5.868;2023-05-15T06:51:49;24.04;50.49
66962;HTU21D;53897;51.126;5.868;2023-05-15T06:54:15;24.05;50.51
66962;HTU21D;53897;51.126;5.868;2023-05-15T06:56:41;24.08;50.57
66962;HTU21D;53897;51.126;5.868;2023-05-15T06:59:07;24.08;50.59
66962;HTU21D;53897;51.126;5.868;2023-05-15T07:01:32;24.09;50.58
66962;HTU21D;53897;51.126;5.868;2023-05-15T07:03:58;24.09;50.59
66962;HTU21D;53897;51.126;5.868;2023-05-15T07:06:24;24.09;50.63
66962;HTU21D;53897;51.126;5.868;2023-05-15T07:08:51;24.09;50.72
66962;HTU21D;53897;51.126;5.868;2023-05-15T07:11:16;24.09;50.82
66962;HTU21D;53897;51.126;5.868;2023-05-15T07:13:42;24.09;50.81
66962;HTU21D;53897;51.126;5.868;2023-05-15T07:16:08;24.11;50.76
66962;HTU21D;53897;51.126;5.868;2023-05-15T07:18:34;24.10;50.75
66962;HTU21D;53897;51.126;5.868;2023-05-15T07:21:00;24.11;50.74
66962;HTU21D;53897;51.126;5.868;2023-05-15T07:23:26;24.13;50.72
66962;HTU21D;53897;51.126;5.868;2023-05-15T07:25:55;24.13;50.72
66962;HTU21D;53897;51.126;5.868;2023-05-15T07:28:21;24.15;50.68
66962;HTU21D;53897;51.126;5.868;2023-05-15T07:30:47;24.14;50.67
66962;HTU21D;53897;51.126;5.868;2023-05-15T07:33:13;24.17;50.68
66962;HTU21D;53897;51.126;5.868;2023-05-15T07:35:39;24.16;50.69
66962;HTU21D;53897;51.126;5.868;2023-05-15T07:38:04;24.17;50.70
66962;HTU21D;53897;51.126;5.868;2023-05-15T07:40:30;24.18;50.69
66962;HTU21D;53897;51.126;5.868;2023-05-15T07:42:56;24.18;50.69
66962;HTU21D;53897;51.126;5.868;2023-05-15T07:45:23;24.18;50.70
66962;HTU21D;53897;51.126;5.868;2023-05-15T07:47:49;24.19;50.71
66962;HTU21D;53897;51.126;5.868;2023-05-15T07:50:16;24.20;50.73
66962;HTU21D;53897;51.126;5.868;2023-05-15T07:52:42;24.21;50.74
66962;HTU21D;53897;51.126;5.868;2023-05-15T07:55:11;24.20;50.76
66962;HTU21D;53897;51.126;5.868;2023-05-15T07:57:37;24.21;50.74
66962;HTU21D;53897;51.126;5.868;2023-05-15T08:00:05;24.24;50.73
66962;HTU21D;53897;51.126;5.868;2023-05-15T08:02:38;24.24;50.69
66962;HTU21D;53897;51.126;5.868;2023-05-15T08:05:04;24.26;50.66
66962;HTU21D;53897;51.126;5.868;2023-05-15T08:07:33;24.26;50.66
66962;HTU21D;53897;51.126;5.868;2023-05-15T08:09:59;24.25;50.67
66962;HTU21D;53897;51.126;5.868;2023-05-15T08:12:25;24.26;50.69
66962;HTU21D;53897;51.126;5.868;2023-05-15T08:14:54;24.26;50.73
66962;HTU21D;53897;51.126;5.868;2023-05-15T08:17:21;24.27;50.75
66962;HTU21D;53897;51.126;5.868;2023-05-15T08:19:47;24.28;50.77
66962;HTU21D;53897;51.126;5.868;2023-05-15T08:22:14;24.28;50.79
66962;HTU21D;53897;51.126;5.868;2023-05-15T08:24:39;24.30;50.82
66962;HTU21D;53897;51.126;5.868;2023-05-15T08:27:06;24.31;50.84
66962;HTU21D;53897;51.126;5.868;2023-05-15T08:29:34;24.32;50.84
66962;HTU21D;53897;51.126;5.868;2023-05-15T08:32:00;24.33;50.83
66962;HTU21D;53897;51.126;5.868;2023-05-15T08:34:26;24.34;50.84
66962;HTU21D;53897;51.126;5.868;2023-05-15T08:36:52;24.36;50.84
66962;HTU21D;53897;51.126;5.868;2023-05-15T08:39:18;24.38;50.83
66962;HTU21D;53897;51.126;5.868;2023-05-15T08:41:57;24.40;50.82
66962;HTU21D;53897;51.126;5.868;2023-05-15T08:44:25;24.40;50.79
66962;HTU21D;53897;51.126;5.868;2023-05-15T08:46:52;24.42;50.79
66962;HTU21D;53897;51.126;5.868;2023-05-15T08:49:40;24.43;50.78
66962;HTU21D;53897;51.126;5.868;2023-05-15T08:52:08;24.46;50.76
66962;HTU21D;53897;51.126;5.868;2023-05-15T08:54:34;24.47;50.76
66962;HTU21D;53897;51.126;5.868;2023-05-15T08:57:01;24.49;50.75
66962;HTU21D;53897;51.126;5.868;2023-05-15T08:59:27;24.50;50.75
66962;HTU21D;53897;51.126;5.868;2023-05-15T09:01:53;24.53;50.72
66962;HTU21D;53897;51.126;5.868;2023-05-15T09:04:20;24.55;50.71
66962;HTU21D;53897;51.126;5.868;2023-05-15T09:06:46;24.56;50.71
66962;HTU21D;53897;51.126;5.868;2023-05-15T09:09:12;24.57;50.69
66962;HTU21D;53897;51.126;5.868;2023-05-15T09:11:46;24.57;50.67
66962;HTU21D;53897;51.126;5.868;2023-05-15T09:14:12;24.59;50.66
66962;HTU21D;53897;51.126;5.868;2023-05-15T09:16:38;24.60;50.66
66962;HTU21D;53897;51.126;5.868;2023-05-15T09:19:05;24.62;50.65
66962;HTU21D;53897;51.126;5.868;2023-05-15T09:21:31;24.63;50.64
66962;HTU21D;53897;51.126;5.868;2023-05-15T09:24:18;24.65;50.63
66962;HTU21D;53897;51.126;5.868;2023-05-15T09:26:46;24.66;50.63
66962;HTU21D;53897;51.126;5.868;2023-05-15T09:29:26;24.70;50.36
66962;HTU21D;53897;51.126;5.868;2023-05-15T09:31:52;24.70;49.64
66962;HTU21D;53897;51.126;5.868;2023-05-15T09:34:18;24.71;49.63
66962;HTU21D;53897;51.126;5.868;2023-05-15T09:36:43;24.72;49.60
66962;HTU21D;53897;51.126;5.868;2023-05-15T09:39:09;24.75;49.58
66962;HTU21D;53897;51.126;5.868;2023-05-15T09:41:40;24.75;49.48
66962;HTU21D;53897;51.126;5.868;2023-05-15T09:44:25;24.76;49.47
66962;HTU21D;53897;51.126;5.868;2023-05-15T09:46:52;24.77;49.41
66962;HTU21D;53897;51.126;5.868;2023-05-15T09:49:18;24.82;49.46
66962;HTU21D;53897;51.126;5.868;2023-05-15T09:51:45;24.80;49.77
66962;HTU21D;53897;51.126;5.868;2023-05-15T09:54:21;24.80;49.78
66962;HTU21D;53897;51.126;5.868;2023-05-15T09:56:47;24.84;49.77
66962;HTU21D;53897;51.126;5.868;2023-05-15T09:59:15;24.86;49.82
66962;HTU21D;53897;51.126;5.868;2023-05-15T10:01:44;24.88;49.87
66962;HTU21D;53897;51.126;5.868;2023-05-15T10:04:12;24.89;49.85
66962;HTU21D;53897;51.126;5.868;2023-05-15T10:06:39;24.90;49.83
66962;HTU21D;53897;51.126;5.868;2023-05-15T10:09:06;24.91;49.74
66962;HTU21D;53897;51.126;5.868;2023-05-15T10:11:34;24.92;49.71
66962;HTU21D;53897;51.126;5.868;2023-05-15T10:14:03;24.94;49.81
66962;HTU21D;53897;51.126;5.868;2023-05-15T10:16:33;24.97;49.98
66962;HTU21D;53897;51.126;5.868;2023-05-15T10:19:04;24.98;49.94
66962;HTU21D;53897;51.126;5.868;2023-05-15T10:21:33;24.99;49.93
66962;HTU21D;53897;51.126;5.868;2023-05-15T10:24:00;25.01;49.98
66962;HTU21D;53897;51.126;5.868;2023-05-15T10:26:41;25.04;50.11
66962;HTU21D;53897;51.126;5.868;2023-05-15T10:29:10;25.07;50.52
66962;HTU21D;53897;51.126;5.868;2023-05-15T10:31:38;25.09;50.63
66962;HTU21D;53897;51.126;5.868;2023-05-15T10:34:05;25.13;50.55
66962;HTU21D;53897;51.126;5.868;2023-05-15T10:36:33;25.15;50.56
66962;HTU21D;53897;51.126;5.868;2023-05-15T10:39:02;25.16;50.71
66962;HTU21D;53897;51.126;5.868;2023-05-15T10:41:29;25.19;50.79
66962;HTU21D;53897;51.126;5.868;2023-05-15T10:43:58;25.21;50.67
66962;HTU21D;53897;51.126;5.868;2023-05-15T10:46:25;25.21;50.55
66962;HTU21D;53897;51.126;5.868;2023-05-15T10:48:52;25.24;50.48
66962;HTU21D;53897;51.126;5.868;2023-05-15T10:51:28;25.27;50.41
66962;HTU21D;53897;51.126;5.868;2023-05-15T10:53:56;25.29;50.35
66962;HTU21D;53897;51.126;5.868;2023-05-15T10:56:37;25.30;50.29
66962;HTU21D;53897;51.126;5.868;2023-05-15T10:59:10;25.32;50.23
66962;HTU21D;53897;51.126;5.868;2023-05-15T11:01:38;25.32;50.19
66962;HTU21D;53897;51.126;5.868;2023-05-15T11:04:12;25.33;50.21
66962;HTU21D;53897;51.126;5.868;2023-05-15T11:06:43;25.35;50.21
66962;HTU21D;53897;51.126;5.868;2023-05-15T11:11:55;25.37;50.17
66962;HTU21D;53897;51.126;5.868;2023-05-15T11:14:25;25.39;50.18
66962;HTU21D;53897;51.126;5.868;2023-05-15T11:22:33;25.43;50.09
66962;HTU21D;53897;51.126;5.868;2023-05-15T11:25:10;25.44;50.07
66962;HTU21D;53897;51.126;5.868;2023-05-15T11:27:42;25.45;50.01
66962;HTU21D;53897;51.126;5.868;2023-05-15T11:30:12;25.44;50.02
66962;HTU21D;53897;51.126;5.868;2023-05-15T11:32:47;25.45;50.04
66962;HTU21D;53897;51.126;5.868;2023-05-15T11:35:32;25.46;50.05
66962;HTU21D;53897;51.126;5.868;2023-05-15T11:38:01;25.45;50.07
66962;HTU21D;53897;51.126;5.868;2023-05-15T11:40:30;25.46;49.98
66962;HTU21D;53897;51.126;5.868;2023-05-15T11:43:23;25.47;49.93
66962;HTU21D;53897;51.126;5.868;2023-05-15T11:45:53;25.47;49.95
66962;HTU21D;53897;51.126;5.868;2023-05-15T11:48:23;25.48;49.94
66962;HTU21D;53897;51.126;5.868;2023-05-15T11:50:49;25.48;50.03
66962;HTU21D;53897;51.126;5.868;2023-05-15T11:53:19;25.47;50.05
66962;HTU21D;53897;51.126;5.868;2023-05-15T11:55:45;25.49;50.02
66962;HTU21D;53897;51.126;5.868;2023-05-15T11:58:18;25.49;50.02
66962;HTU21D;53897;51.126;5.868;2023-05-15T12:00:46;25.50;50.08
66962;HTU21D;53897;51.126;5.868;2023-05-15T12:03:32;25.50;50.11
66962;HTU21D;53897;51.126;5.868;2023-05-15T12:06:00;25.51;50.11
66962;HTU21D;53897;51.126;5.868;2023-05-15T12:08:34;25.52;50.18
66962;HTU21D;53897;51.126;5.868;2023-05-15T12:11:01;25.53;50.18
66962;HTU21D;53897;51.126;5.868;2023-05-15T12:13:29;25.54;50.23
66962;HTU21D;53897;51.126;5.868;2023-05-15T12:15:55;25.54;50.21
66962;HTU21D;53897;51.126;5.868;2023-05-15T12:18:21;25.54;50.22
66962;HTU21D;53897;51.126;5.868;2023-05-15T12:20:49;25.56;50.22
66962;HTU21D;53897;51.126;5.868;2023-05-15T12:23:16;25.57;50.21
66962;HTU21D;53897;51.126;5.868;2023-05-15T12:25:46;25.58;50.21
66962;HTU21D;53897;51.126;5.868;2023-05-15T12:28:13;25.58;50.19
66962;HTU21D;53897;51.126;5.868;2023-05-15T12:30:41;25.58;50.19
66962;HTU21D;53897;51.126;5.868;2023-05-15T12:33:09;25.59;50.18
66962;HTU21D;53897;51.126;5.868;2023-05-15T12:35:39;25.60;50.18
66962;HTU21D;53897;51.126;5.868;2023-05-15T12:38:05;25.59;50.18
66962;HTU21D;53897;51.126;5.868;2023-05-15T12:40:35;25.60;50.17
66962;HTU21D;53897;51.126;5.868;2023-05-15T12:43:06;25.60;50.17
66962;HTU21D;53897;51.126;5.868;2023-05-15T12:45:32;25.61;50.17
66962;HTU21D;53897;51.126;5.868;2023-05-15T12:47:59;25.61;50.17
66962;HTU21D;53897;51.126;5.868;2023-05-15T12:50:26;25.61;50.17
66962;HTU21D;53897;51.126;5.868;2023-05-15T12:52:57;25.62;50.18
66962;HTU21D;53897;51.126;5.868;2023-05-15T12:58:00;25.62;50.20
66962;HTU21D;53897;51.126;5.868;2023-05-15T13:00:33;25.63;50.31
66962;HTU21D;53897;51.126;5.868;2023-05-15T13:03:00;25.63;50.48
66962;HTU21D;53897;51.126;5.868;2023-05-15T13:05:30;25.63;50.58
66962;HTU21D;53897;51.126;5.868;2023-05-15T13:07:58;25.63;50.78
66962;HTU21D;53897;51.126;5.868;2023-05-15T13:10:24;25.63;50.88
66962;HTU21D;53897;51.126;5.868;2023-05-15T13:12:52;25.64;50.93
66962;HTU21D;53897;51.126;5.868;2023-05-15T13:15:29;25.65;50.95
66962;HTU21D;53897;51.126;5.868;2023-05-15T13:18:13;25.65;50.98
66962;HTU21D;53897;51.126;5.868;2023-05-15T13:20:47;25.66;51.01
66962;HTU21D;53897;51.126;5.868;2023-05-15T13:23:16;25.67;51.01
66962;HTU21D;53897;51.126;5.868;2023-05-15T13:25:42;25.67;51.01
66962;HTU21D;53897;51.126;5.868;2023-05-15T13:28:09;25.69;50.90
66962;HTU21D;53897;51.126;5.868;2023-05-15T13:30:35;25.69;50.93
66962;HTU21D;53897;51.126;5.868;2023-05-15T13:33:03;25.67;50.88
66962;HTU21D;53897;51.126;5.868;2023-05-15T13:35:30;25.66;50.84
66962;HTU21D;53897;51.126;5.868;2023-05-15T13:37:55;25.66;50.88
66962;HTU21D;53897;51.126;5.868;2023-05-15T13:40:22;25.66;50.93
66962;HTU21D;53897;51.126;5.868;2023-05-15T13:42:47;25.60;51.10
66962;HTU21D;53897;51.126;5.868;2023-05-15T13:45:15;25.52;51.30
66962;HTU21D;53897;51.126;5.868;2023-05-15T13:47:42;25.48;51.50
66962;HTU21D;53897;51.126;5.868;2023-05-15T13:50:10;25.50;51.48
66962;HTU21D;53897;51.126;5.868;2023-05-15T13:52:36;25.52;51.42
66962;HTU21D;53897;51.126;5.868;2023-05-15T13:55:03;25.53;51.38
66962;HTU21D;53897;51.126;5.868;2023-05-15T13:57:29;25.57;51.37
66962;HTU21D;53897;51.126;5.868;2023-05-15T13:59:57;25.57;51.34
66962;HTU21D;53897;51.126;5.868;2023-05-15T14:02:23;25.58;51.25
66962;HTU21D;53897;51.126;5.868;2023-05-15T14:04:52;25.60;51.15
66962;HTU21D;53897;51.126;5.868;2023-05-15T14:07:21;25.61;51.10
66962;HTU21D;53897;51.126;5.868;2023-05-15T14:09:47;25.61;51.06
66962;HTU21D;53897;51.126;5.868;2023-05-15T14:12:13;25.62;51.04
66962;HTU21D;53897;51.126;5.868;2023-05-15T14:14:38;25.63;51.02
66962;HTU21D;53897;51.126;5.868;2023-05-15T14:17:04;25.62;51.03
66962;HTU21D;53897;51.126;5.868;2023-05-15T14:19:30;25.62;51.01
66962;HTU21D;53897;51.126;5.868;2023-05-15T14:21:56;25.62;50.98
66962;HTU21D;53897;51.126;5.868;2023-05-15T14:24:21;25.62;50.98
66962;HTU21D;53897;51.126;5.868;2023-05-15T14:26:47;25.61;50.98
66962;HTU21D;53897;51.126;5.868;2023-05-15T14:29:13;25.62;51.01
66962;HTU21D;53897;51.126;5.868;2023-05-15T14:31:40;25.61;51.01
66962;HTU21D;53897;51.126;5.868;2023-05-15T14:34:05;25.62;51.01
66962;HTU21D;53897;51.126;5.868;2023-05-15T14:36:31;25.61;50.99
66962;HTU21D;53897;51.126;5.868;2023-05-15T14:38:57;25.62;51.01
66962;HTU21D;53897;51.126;5.868;2023-05-15T14:41:23;25.62;51.00
66962;HTU21D;53897;51.126;5.868;2023-05-15T14:43:48;25.62;50.98
66962;HTU21D;53897;51.126;5.868;2023-05-15T14:46:14;25.63;50.98
66962;HTU21D;53897;51.126;5.868;2023-05-15T14:48:40;25.62;50.98
66962;HTU21D;53897;51.126;5.868;2023-05-15T14:51:06;25.63;50.96
66962;HTU21D;53897;51.126;5.868;2023-05-15T14:53:32;25.63;50.97
66962;HTU21D;53897;51.126;5.868;2023-05-15T14:55:59;25.64;50.96
66962;HTU21D;53897;51.126;5.868;2023-05-15T14:58:25;25.61;50.98
66962;HTU21D;53897;51.126;5.868;2023-05-15T15:00:51;25.61;51.03
66962;HTU21D;53897;51.126;5.868;2023-05-15T15:03:17;25.61;51.14
66962;HTU21D;53897;51.126;5.868;2023-05-15T15:05:43;25.63;51.37
66962;HTU21D;53897;51.126;5.868;2023-05-15T15:08:09;25.61;51.64
66962;HTU21D;53897;51.126;5.868;2023-05-15T15:10:38;25.62;51.97
66962;HTU21D;53897;51.126;5.868;2023-05-15T15:13:05;25.61;52.05
66962;HTU21D;53897;51.126;5.868;2023-05-15T15:15:33;25.61;52.40
66962;HTU21D;53897;51.126;5.868;2023-05-15T15:17:59;25.62;52.75
66962;HTU21D;53897;51.126;5.868;2023-05-15T15:20:26;25.62;53.07
66962;HTU21D;53897;51.126;5.868;2023-05-15T15:22:52;25.61;52.76
66962;HTU21D;53897;51.126;5.868;2023-05-15T15:25:19;25.63;53.06
66962;HTU21D;53897;51.126;5.868;2023-05-15T15:27:45;25.62;53.20
66962;HTU21D;53897;51.126;5.868;2023-05-15T15:30:11;25.62;53.10
66962;HTU21D;53897;51.126;5.868;2023-05-15T15:32:38;25.61;53.03
66962;HTU21D;53897;51.126;5.868;2023-05-15T15:35:05;25.62;53.03
66962;HTU21D;53897;51.126;5.868;2023-05-15T15:37:32;25.62;52.99
66962;HTU21D;53897;51.126;5.868;2023-05-15T15:40:02;25.62;52.88
66962;HTU21D;53897;51.126;5.868;2023-05-15T15:42:30;25.62;52.85